createdAt,value
2022-11-27T00:01:17.117Z,6.47
2022-11-27T00:03:44.251Z,6.33
2022-11-27T00:06:20.622Z,6.37
2022-11-27T00:08:48.528Z,6.27
2022-11-27T00:11:18.402Z,6.22
2022-11-27T00:13:45.692Z,6.25
2022-11-27T00:16:13.955Z,5.94
2022-11-27T00:18:41.213Z,5.81
2022-11-27T00:21:10.985Z,5.93
2022-11-27T00:23:38.751Z,6.08
2022-11-27T00:26:06.488Z,5.99
2022-11-27T00:28:33.954Z,5.97
2022-11-27T00:31:02.150Z,5.98
2022-11-27T00:33:28.740Z,6.03
2022-11-27T00:35:55.392Z,6.01
2022-11-27T00:38:21.960Z,6.05
2022-11-27T00:40:48.966Z,5.99
2022-11-27T00:43:15.692Z,6.00
2022-11-27T00:45:42.207Z,6.02
2022-11-27T00:48:08.676Z,6.04
2022-11-27T00:50:35.181Z,6.05
2022-11-27T00:53:06.493Z,6.00
2022-11-27T00:55:36.608Z,5.77
2022-11-27T00:58:03.119Z,5.76
2022-11-27T01:00:29.728Z,5.75
2022-11-27T01:02:56.499Z,5.75
2022-11-27T01:05:26.418Z,5.71
2022-11-27T01:07:52.958Z,5.70
2022-11-27T01:10:21.417Z,5.75
2022-11-27T01:12:50.084Z,5.62
2022-11-27T01:15:16.661Z,5.56
2022-11-27T01:17:43.187Z,5.55
2022-11-27T01:20:10.110Z,5.57
2022-11-27T01:22:36.632Z,5.58
2022-11-27T01:25:03.271Z,5.61
2022-11-27T01:27:29.752Z,5.52
2022-11-27T01:29:56.355Z,5.60
2022-11-27T01:32:23.076Z,5.58
2022-11-27T01:34:50.120Z,5.53
2022-11-27T01:37:16.701Z,5.44
2022-11-27T01:39:43.316Z,5.48
2022-11-27T01:42:11.672Z,5.49
2022-11-27T01:44:38.493Z,5.48
2022-11-27T01:47:15.380Z,5.45
2022-11-27T01:49:50.528Z,5.50
2022-11-27T01:52:28.069Z,5.43
2022-11-27T01:54:59.142Z,5.40
2022-11-27T01:57:31.091Z,5.42
2022-11-27T02:00:00.589Z,5.40
2022-11-27T02:02:27.271Z,5.37
2022-11-27T02:04:55.141Z,5.40
2022-11-27T02:07:22.085Z,5.32
2022-11-27T02:09:48.884Z,5.30
2022-11-27T02:12:25.688Z,5.20
2022-11-27T02:15:14.111Z,5.10
2022-11-27T02:17:46.411Z,5.10
2022-11-27T02:20:28.057Z,5.27
2022-11-27T02:23:23.091Z,5.21
2022-11-27T02:25:55.754Z,5.28
2022-11-27T02:28:58.670Z,5.34
2022-11-27T02:31:25.681Z,5.36
2022-11-27T02:33:56.100Z,5.30
2022-11-27T02:36:29.656Z,5.18
2022-11-27T02:39:09.070Z,5.22
2022-11-27T02:41:47.215Z,5.24
2022-11-27T02:44:15.998Z,5.29
2022-11-27T02:46:42.948Z,5.14
2022-11-27T02:49:12.995Z,5.09
2022-11-27T02:51:49.533Z,5.30
2022-11-27T02:54:21.848Z,5.29
2022-11-27T02:56:49.923Z,5.21
2022-11-27T02:59:18.241Z,5.29
2022-11-27T03:01:52.068Z,5.24
2022-11-27T03:04:24.751Z,5.09
2022-11-27T03:06:56.457Z,5.08
2022-11-27T03:09:51.174Z,5.02
2022-11-27T03:12:19.062Z,5.02
2022-11-27T03:14:47.044Z,4.98
2022-11-27T03:17:44.132Z,4.93
2022-11-27T03:20:10.645Z,4.88
2022-11-27T03:22:37.259Z,4.73
2022-11-27T03:25:04.080Z,4.75
2022-11-27T03:27:38.744Z,4.82
2022-11-27T03:30:06.695Z,4.82
2022-11-27T03:32:33.406Z,4.70
2022-11-27T03:35:00.532Z,4.74
2022-11-27T03:37:28.251Z,4.77
2022-11-27T03:39:55.101Z,4.85
2022-11-27T03:42:45.918Z,4.92
2022-11-27T03:45:43.728Z,4.83
2022-11-27T03:48:35.458Z,4.83
2022-11-27T03:51:04.684Z,4.80
2022-11-27T03:54:06.733Z,4.92
2022-11-27T03:56:33.209Z,4.91
2022-11-27T03:59:09.169Z,4.91
2022-11-27T04:01:36.485Z,5.03
2022-11-27T04:04:03.388Z,4.99
2022-11-27T04:06:30.615Z,4.94
2022-11-27T04:08:57.299Z,4.89
2022-11-27T04:11:23.772Z,4.94
2022-11-27T04:13:52.237Z,4.97
2022-11-27T04:16:19.366Z,5.00
2022-11-27T04:18:45.889Z,5.12
2022-11-27T04:21:12.850Z,5.09
2022-11-27T04:23:39.655Z,5.16
2022-11-27T04:26:06.548Z,5.17
2022-11-27T04:28:34.451Z,5.22
2022-11-27T04:31:01.636Z,5.32
2022-11-27T04:33:28.584Z,5.47
2022-11-27T04:35:55.212Z,5.63
2022-11-27T04:38:22.127Z,5.80
2022-11-27T04:40:48.669Z,5.88
2022-11-27T04:43:15.234Z,5.89
2022-11-27T04:45:41.790Z,5.96
2022-11-27T04:48:08.380Z,6.00
2022-11-27T04:50:34.916Z,5.96
2022-11-27T04:53:01.847Z,5.97
2022-11-27T04:55:29.275Z,5.97
2022-11-27T04:57:55.790Z,6.07
2022-11-27T05:00:22.319Z,6.21
2022-11-27T05:02:48.918Z,6.23
2022-11-27T05:05:17.145Z,6.21
2022-11-27T05:07:43.763Z,6.22
2022-11-27T05:10:11.305Z,6.06
2022-11-27T05:12:37.849Z,6.09
2022-11-27T05:15:04.985Z,6.09
2022-11-27T05:17:32.014Z,6.07
2022-11-27T05:19:58.502Z,6.16
2022-11-27T05:22:24.960Z,6.22
2022-11-27T05:24:51.482Z,6.17
2022-11-27T05:27:17.990Z,6.25
2022-11-27T05:29:44.602Z,6.34
2022-11-27T05:32:11.574Z,6.38
2022-11-27T05:34:38.415Z,6.40
2022-11-27T05:37:05.481Z,6.43
2022-11-27T05:39:32.065Z,6.56
2022-11-27T05:41:58.668Z,6.54
2022-11-27T05:44:26.549Z,6.55
2022-11-27T05:46:53.067Z,6.58
2022-11-27T05:49:19.648Z,6.62
2022-11-27T05:51:50.944Z,6.62
2022-11-27T05:54:17.934Z,6.58
2022-11-27T05:56:44.444Z,6.60
2022-11-27T05:59:11.049Z,6.59
2022-11-27T06:01:37.693Z,6.59
2022-11-27T06:04:04.383Z,6.58
2022-11-27T06:06:31.414Z,6.61
2022-11-27T06:08:57.880Z,6.61
2022-11-27T06:11:24.572Z,6.57
2022-11-27T06:13:51.213Z,6.57
2022-11-27T06:16:21.685Z,6.54
2022-11-27T06:18:53.233Z,6.42
2022-11-27T06:21:21.441Z,6.49
2022-11-27T06:23:48.439Z,6.59
2022-11-27T06:26:16.662Z,6.69
2022-11-27T06:28:43.641Z,6.66
2022-11-27T06:31:17.728Z,6.58
2022-11-27T06:33:45.106Z,6.63
2022-11-27T06:36:11.841Z,6.62
2022-11-27T06:38:39.038Z,6.58
2022-11-27T06:41:08.521Z,6.59
2022-11-27T06:43:35.957Z,6.62
2022-11-27T06:46:04.230Z,6.58
2022-11-27T06:48:31.986Z,6.51
2022-11-27T06:51:03.310Z,6.58
2022-11-27T06:53:30.838Z,6.56
2022-11-27T06:55:57.845Z,6.50
2022-11-27T06:58:30.658Z,6.48
2022-11-27T07:01:01.934Z,6.51
2022-11-27T07:03:28.528Z,6.61
2022-11-27T07:05:55.188Z,6.65
2022-11-27T07:08:22.488Z,6.65
2022-11-27T07:10:49.029Z,6.64
2022-11-27T07:13:15.537Z,6.67
2022-11-27T07:15:42.497Z,6.70
2022-11-27T07:18:09.996Z,6.71
2022-11-27T07:20:36.491Z,6.76
2022-11-27T07:23:03.008Z,6.81
2022-11-27T07:25:29.604Z,6.96
2022-11-27T07:27:56.209Z,6.99
2022-11-27T07:30:22.745Z,6.99
2022-11-27T07:32:49.292Z,7.06
2022-11-27T07:35:15.836Z,7.04
2022-11-27T07:37:42.438Z,7.03
2022-11-27T07:40:09.816Z,7.07
2022-11-27T07:42:38.731Z,7.17
2022-11-27T07:45:08.411Z,7.25
2022-11-27T07:47:35.009Z,7.17
2022-11-27T07:50:01.725Z,7.22
2022-11-27T07:52:28.431Z,7.32
2022-11-27T07:54:54.975Z,7.33
2022-11-27T07:57:21.546Z,7.41
2022-11-27T07:59:48.113Z,7.49
2022-11-27T08:02:15.239Z,7.42
2022-11-27T08:04:42.305Z,7.59
2022-11-27T08:07:09.032Z,7.71
2022-11-27T08:09:35.908Z,7.63
2022-11-27T08:12:02.356Z,7.66
2022-11-27T08:14:29.025Z,7.70
2022-11-27T08:16:55.774Z,7.80
2022-11-27T08:19:22.388Z,7.78
2022-11-27T08:21:48.937Z,7.88
2022-11-27T08:24:15.639Z,7.93
2022-11-27T08:26:42.916Z,7.91
2022-11-27T08:29:12.520Z,8.00
2022-11-27T08:31:39.352Z,8.03
2022-11-27T08:34:06.146Z,8.10
2022-11-27T08:36:32.701Z,8.15
2022-11-27T08:38:59.327Z,8.27
2022-11-27T08:41:25.870Z,8.23
2022-11-27T08:43:52.478Z,8.26
2022-11-27T08:46:19.074Z,8.32
2022-11-27T08:48:45.659Z,8.36
2022-11-27T08:51:15.585Z,8.38
2022-11-27T08:53:45.154Z,8.40
2022-11-27T08:56:16.869Z,8.36
2022-11-27T08:58:44.653Z,8.38
2022-11-27T09:01:16.176Z,8.41
2022-11-27T09:03:43.478Z,8.42
2022-11-27T09:06:12.779Z,8.41
2022-11-27T09:08:40.356Z,8.44
2022-11-27T09:11:07.664Z,8.38
2022-11-27T09:13:36.937Z,8.36
2022-11-27T09:16:09.345Z,8.59
2022-11-27T09:18:35.897Z,8.60
2022-11-27T09:21:05.081Z,8.65
2022-11-27T09:23:32.342Z,8.70
2022-11-27T09:26:00.161Z,8.78
2022-11-27T09:28:31.404Z,8.92
2022-11-27T09:31:00.449Z,8.93
2022-11-27T09:33:28.434Z,8.99
2022-11-27T09:35:55.249Z,8.98
2022-11-27T09:38:23.673Z,9.14
2022-11-27T09:40:53.548Z,9.25
2022-11-27T09:43:29.584Z,9.19
2022-11-27T09:46:01.531Z,9.38
2022-11-27T09:48:39.289Z,9.44
2022-11-27T09:51:19.964Z,9.50
2022-11-27T09:53:58.048Z,9.65
2022-11-27T09:56:25.264Z,9.80
2022-11-27T09:58:59.569Z,9.86
2022-11-27T10:01:36.610Z,9.91
2022-11-27T10:04:12.991Z,10.05
2022-11-27T10:06:45.410Z,10.14
2022-11-27T10:09:36.744Z,10.23
2022-11-27T10:12:12.164Z,10.21
2022-11-27T10:14:38.785Z,10.30
2022-11-27T10:17:28.791Z,10.29
2022-11-27T10:20:23.823Z,10.32
2022-11-27T10:23:03.252Z,10.50
2022-11-27T10:25:39.885Z,10.51
2022-11-27T10:28:22.326Z,10.52
2022-11-27T10:30:58.087Z,10.59
2022-11-27T10:33:33.361Z,10.67
2022-11-27T10:36:01.346Z,10.59
2022-11-27T10:38:40.266Z,10.64
2022-11-27T10:41:48.306Z,10.63
2022-11-27T10:44:25.248Z,10.80
2022-11-27T10:46:54.453Z,10.80
2022-11-27T10:49:21.745Z,10.72
2022-11-27T10:51:48.465Z,10.90
2022-11-27T10:54:26.552Z,10.73
2022-11-27T10:57:12.053Z,10.97
2022-11-27T11:00:07.671Z,11.09
2022-11-27T11:02:38.614Z,11.13
2022-11-27T11:05:45.069Z,11.16
2022-11-27T11:08:18.691Z,11.10
2022-11-27T11:11:02.307Z,11.21
2022-11-27T11:13:33.697Z,11.26
2022-11-27T11:16:05.038Z,11.34
2022-11-27T11:18:42.757Z,11.46
2022-11-27T11:21:33.653Z,11.46
2022-11-27T11:24:06.958Z,11.44
2022-11-27T11:26:52.759Z,11.56
2022-11-27T11:29:34.485Z,11.42
2022-11-27T11:32:11.252Z,11.62
2022-11-27T11:34:43.812Z,11.53
2022-11-27T11:37:23.787Z,11.49
2022-11-27T11:39:55.602Z,11.49
2022-11-27T11:42:25.645Z,11.62
2022-11-27T11:44:54.992Z,11.68
2022-11-27T11:47:26.693Z,11.62
2022-11-27T11:49:55.108Z,11.66
2022-11-27T11:52:24.539Z,11.66
2022-11-27T11:55:22.062Z,11.69
2022-11-27T11:58:11.941Z,11.76
2022-11-27T12:01:11.821Z,11.79
2022-11-27T12:04:02.954Z,11.88
2022-11-27T12:06:48.304Z,11.79
2022-11-27T12:09:17.674Z,11.85
2022-11-27T12:11:48.097Z,11.90
2022-11-27T12:14:32.553Z,11.92
2022-11-27T12:17:28.173Z,12.03
2022-11-27T12:20:35.906Z,12.01
2022-11-27T12:23:28.218Z,11.99
2022-11-27T12:26:26.963Z,12.06
2022-11-27T12:29:09.453Z,12.03
2022-11-27T12:32:00.941Z,12.07
2022-11-27T12:34:33.266Z,12.19
2022-11-27T12:37:07.062Z,12.16
2022-11-27T12:39:59.440Z,12.24
2022-11-27T12:42:33.440Z,12.33
2022-11-27T12:44:59.922Z,12.26
2022-11-27T12:47:40.738Z,12.32
2022-11-27T12:50:23.833Z,12.39
2022-11-27T12:53:09.819Z,12.29
2022-11-27T12:55:36.633Z,12.38
2022-11-27T12:58:07.816Z,12.41
2022-11-27T13:00:39.425Z,12.33
2022-11-27T13:03:39.251Z,12.58
2022-11-27T13:06:12.176Z,12.46
2022-11-27T13:09:09.933Z,12.33
2022-11-27T13:11:39.483Z,12.32
2022-11-27T13:14:18.722Z,12.44
2022-11-27T13:16:50.353Z,12.46
2022-11-27T13:19:29.122Z,12.56
2022-11-27T13:21:58.359Z,12.52
2022-11-27T13:24:27.086Z,12.51
2022-11-27T13:27:10.728Z,12.47
2022-11-27T13:29:48.177Z,12.51
2022-11-27T13:32:30.903Z,12.49
2022-11-27T13:35:07.811Z,12.49
2022-11-27T13:37:37.484Z,12.49
2022-11-27T13:40:21.038Z,12.53
2022-11-27T13:42:56.455Z,12.37
2022-11-27T13:45:26.657Z,12.36
2022-11-27T13:47:54.457Z,12.38
2022-11-27T13:50:25.808Z,12.50
2022-11-27T13:53:00.784Z,12.48
2022-11-27T13:55:33.924Z,12.57
2022-11-27T13:58:02.721Z,12.52
2022-11-27T14:00:44.839Z,12.44
2022-11-27T14:03:30.460Z,12.61
2022-11-27T14:05:57.672Z,12.44
2022-11-27T14:08:31.833Z,12.53
2022-11-27T14:10:59.885Z,12.60
2022-11-27T14:13:38.434Z,12.42
2022-11-27T14:16:22.057Z,12.47
2022-11-27T14:18:51.776Z,12.40
2022-11-27T14:21:38.818Z,12.43
2022-11-27T14:24:23.557Z,12.47
2022-11-27T14:26:50.073Z,12.45
2022-11-27T14:29:16.625Z,12.35
2022-11-27T14:31:43.762Z,12.45
2022-11-27T14:34:30.565Z,12.48
2022-11-27T14:36:57.924Z,12.48
2022-11-27T14:39:31.348Z,12.32
2022-11-27T14:42:03.124Z,12.31
2022-11-27T14:44:30.204Z,12.40
2022-11-27T14:47:00.497Z,12.39
2022-11-27T14:49:29.061Z,12.26
2022-11-27T14:52:01.669Z,12.37
2022-11-27T14:54:39.176Z,12.41
2022-11-27T14:57:07.245Z,12.44
2022-11-27T14:59:33.813Z,12.31
2022-11-27T15:02:15.332Z,12.35
2022-11-27T15:04:43.765Z,12.32
2022-11-27T15:07:21.985Z,12.29
2022-11-27T15:09:54.263Z,12.21
2022-11-27T15:12:24.026Z,12.24
2022-11-27T15:15:02.311Z,12.19
2022-11-27T15:17:32.820Z,12.20
2022-11-27T15:20:01.267Z,12.13
2022-11-27T15:22:27.941Z,12.20
2022-11-27T15:25:02.687Z,12.21
2022-11-27T15:27:33.668Z,12.17
2022-11-27T15:30:10.107Z,12.12
2022-11-27T15:32:51.943Z,12.17
2022-11-27T15:35:27.951Z,12.09
2022-11-27T15:37:58.264Z,12.07
2022-11-27T15:40:24.881Z,12.05
2022-11-27T15:42:51.351Z,12.03
2022-11-27T15:45:17.944Z,12.01
2022-11-27T15:47:44.591Z,12.04
2022-11-27T15:50:16.448Z,12.04
2022-11-27T15:52:43.275Z,11.93
2022-11-27T15:55:17.176Z,11.95
2022-11-27T15:57:43.795Z,11.88
2022-11-27T16:00:11.054Z,11.82
2022-11-27T16:02:38.374Z,11.73
2022-11-27T16:05:06.883Z,11.72
2022-11-27T16:07:34.361Z,11.77
2022-11-27T16:10:01.564Z,11.78
2022-11-27T16:12:28.130Z,11.72
2022-11-27T16:14:54.685Z,11.82
2022-11-27T16:17:21.506Z,11.75
2022-11-27T16:19:47.993Z,11.75
2022-11-27T16:22:14.557Z,11.71
2022-11-27T16:24:41.545Z,11.78
2022-11-27T16:27:08.209Z,11.74
2022-11-27T16:29:34.986Z,11.65
2022-11-27T16:32:02.195Z,11.70
2022-11-27T16:34:28.845Z,11.80
2022-11-27T16:36:55.373Z,11.59
2022-11-27T16:39:21.882Z,11.66
2022-11-27T16:41:48.480Z,11.77
2022-11-27T16:44:15.435Z,11.74
2022-11-27T16:46:43.883Z,11.69
2022-11-27T16:49:13.260Z,11.59
2022-11-27T16:51:40.279Z,11.57
2022-11-27T16:54:10.035Z,11.54
2022-11-27T16:56:38.398Z,11.60
2022-11-27T16:59:10.029Z,11.49
2022-11-27T17:01:37.898Z,11.55
2022-11-27T17:04:07.188Z,11.60
2022-11-27T17:06:37.294Z,11.66
2022-11-27T17:09:06.039Z,11.69
2022-11-27T17:11:35.481Z,11.61
2022-11-27T17:14:06.929Z,11.61
2022-11-27T17:16:35.004Z,11.70
2022-11-27T17:19:02.623Z,11.65
2022-11-27T17:21:34.480Z,11.65
2022-11-27T17:24:03.694Z,11.67
2022-11-27T17:26:31.875Z,11.60
2022-11-27T17:28:59.607Z,11.63
2022-11-27T17:31:31.264Z,11.70
2022-11-27T17:33:58.380Z,11.73
2022-11-27T17:36:26.047Z,11.76
2022-11-27T17:38:53.646Z,11.73
2022-11-27T17:41:21.324Z,11.56
2022-11-27T17:43:48.611Z,11.58
2022-11-27T17:46:34.584Z,11.67
2022-11-27T17:49:03.258Z,11.68
2022-11-27T17:51:32.771Z,11.76
2022-11-27T17:54:01.644Z,11.69
2022-11-27T17:56:29.273Z,11.71
2022-11-27T17:58:55.849Z,11.66
2022-11-27T18:01:29.034Z,11.68
2022-11-27T18:03:57.619Z,11.74
2022-11-27T18:06:24.207Z,11.79
2022-11-27T18:08:50.929Z,11.68
2022-11-27T18:11:22.301Z,11.71
2022-11-27T18:13:49.365Z,11.67
2022-11-27T18:16:19.528Z,11.75
2022-11-27T18:18:46.960Z,11.69
2022-11-27T18:21:21.016Z,11.73
2022-11-27T18:24:21.383Z,11.64
2022-11-27T18:27:06.740Z,11.67
2022-11-27T18:29:23.348Z,11.60
2022-11-27T18:31:51.182Z,11.62
2022-11-27T18:34:18.032Z,11.62
2022-11-27T18:36:45.811Z,11.69
2022-11-27T18:39:12.458Z,11.69
2022-11-27T18:41:39.041Z,11.65
2022-11-27T18:44:05.732Z,11.66
2022-11-27T18:46:32.725Z,11.69
2022-11-27T18:49:00.806Z,11.75
2022-11-27T18:51:27.695Z,11.75
2022-11-27T18:53:55.865Z,11.72
2022-11-27T18:56:27.640Z,11.77
2022-11-27T18:58:54.645Z,11.77
2022-11-27T19:01:25.971Z,11.75
2022-11-27T19:03:53.042Z,11.73
2022-11-27T19:06:21.460Z,11.73
2022-11-27T19:08:48.640Z,11.66
2022-11-27T19:11:19.903Z,11.72
2022-11-27T19:13:46.815Z,11.73
2022-11-27T19:16:15.779Z,11.48
2022-11-27T19:18:42.808Z,11.41
2022-11-27T19:21:17.430Z,11.46
2022-11-27T19:23:44.546Z,11.54
2022-11-27T19:26:13.479Z,11.50
2022-11-27T19:28:40.600Z,11.48
2022-11-27T19:31:10.786Z,11.48
2022-11-27T19:33:38.260Z,11.49
2022-11-27T19:36:08.605Z,11.51
2022-11-27T19:38:35.948Z,11.35
2022-11-27T19:41:04.360Z,11.41
2022-11-27T19:43:31.227Z,11.45
2022-11-27T19:45:58.014Z,11.49
2022-11-27T19:48:24.563Z,11.51
2022-11-27T19:50:51.808Z,11.48
2022-11-27T19:53:18.570Z,11.42
2022-11-27T19:55:52.849Z,11.40
2022-11-27T19:58:19.434Z,11.53
2022-11-27T20:00:46.005Z,11.50
2022-11-27T20:03:12.563Z,11.54
2022-11-27T20:05:39.232Z,11.58
2022-11-27T20:08:05.872Z,11.58
2022-11-27T20:10:33.074Z,11.52
2022-11-27T20:13:01.668Z,11.48
2022-11-27T20:15:29.312Z,11.49
2022-11-27T20:17:56.063Z,11.50
2022-11-27T20:20:22.794Z,11.49
2022-11-27T20:22:50.372Z,11.45
2022-11-27T20:25:21.683Z,11.39
2022-11-27T20:27:48.462Z,11.22
2022-11-27T20:30:15.165Z,11.26
2022-11-27T20:32:41.666Z,11.20
2022-11-27T20:35:08.520Z,11.31
2022-11-27T20:37:35.112Z,11.33
2022-11-27T20:40:01.708Z,11.27
2022-11-27T20:42:28.299Z,11.16
2022-11-27T20:44:54.826Z,11.16
2022-11-27T20:47:21.370Z,11.18
2022-11-27T20:49:47.955Z,11.17
2022-11-27T20:52:14.680Z,11.13
2022-11-27T20:54:41.341Z,11.13
2022-11-27T20:57:14.199Z,11.13
2022-11-27T20:59:41.910Z,11.08
2022-11-27T21:02:12.505Z,11.10
2022-11-27T21:04:39.135Z,11.09
2022-11-27T21:07:06.642Z,11.05
2022-11-27T21:09:33.750Z,11.10
2022-11-27T21:12:00.688Z,11.14
2022-11-27T21:14:27.413Z,11.17
2022-11-27T21:16:54.436Z,11.13
2022-11-27T21:19:25.269Z,11.35
2022-11-27T21:21:53.439Z,11.32
2022-11-27T21:24:22.147Z,11.27
2022-11-27T21:26:49.181Z,11.27
2022-11-27T21:29:16.070Z,11.23
2022-11-27T21:31:46.752Z,11.15
2022-11-27T21:34:13.949Z,11.14
2022-11-27T21:36:40.618Z,11.13
2022-11-27T21:39:09.239Z,11.10
2022-11-27T21:41:36.638Z,11.06
2022-11-27T21:44:04.422Z,11.01
2022-11-27T21:46:31.274Z,11.02
2022-11-27T21:49:00.429Z,11.07
2022-11-27T21:51:28.854Z,11.07
2022-11-27T21:53:56.986Z,11.09
2022-11-27T21:56:25.804Z,11.06
2022-11-27T21:58:52.790Z,11.14
2022-11-27T22:01:21.846Z,11.21
2022-11-27T22:03:51.399Z,11.37
2022-11-27T22:06:19.129Z,11.37
2022-11-27T22:08:47.565Z,11.31
2022-11-27T22:11:17.740Z,11.20
2022-11-27T22:13:44.834Z,11.33
2022-11-27T22:16:20.168Z,11.35
2022-11-27T22:18:47.144Z,11.38
2022-11-27T22:21:14.637Z,11.37
2022-11-27T22:23:41.761Z,11.34
2022-11-27T22:26:11.748Z,11.20
2022-11-27T22:28:38.816Z,11.21
2022-11-27T22:31:17.073Z,11.33
2022-11-27T22:33:45.049Z,11.33
2022-11-27T22:36:16.878Z,11.50
2022-11-27T22:38:45.424Z,11.53
2022-11-27T22:41:12.891Z,11.53
2022-11-27T22:43:40.539Z,11.49
2022-11-27T22:46:09.723Z,11.42
2022-11-27T22:48:36.635Z,11.50
2022-11-27T22:51:03.362Z,11.53
2022-11-27T22:53:30.225Z,11.62
2022-11-27T22:55:57.386Z,11.67
2022-11-27T22:58:24.056Z,11.58
2022-11-27T23:00:57.202Z,11.67
2022-11-27T23:03:23.847Z,11.48
2022-11-27T23:05:50.452Z,11.44
2022-11-27T23:08:18.947Z,11.27
2022-11-27T23:10:49.629Z,11.36
2022-11-27T23:13:16.969Z,11.35
2022-11-27T23:15:44.550Z,11.40
2022-11-27T23:18:11.733Z,11.27
2022-11-27T23:20:42.657Z,11.37
2022-11-27T23:23:10.126Z,11.30
2022-11-27T23:25:37.262Z,11.38
2022-11-27T23:28:04.132Z,11.42
2022-11-27T23:30:31.562Z,11.45
2022-11-27T23:32:58.103Z,11.39
2022-11-27T23:35:24.720Z,11.32
2022-11-27T23:37:51.373Z,11.31
2022-11-27T23:40:18.066Z,11.32
2022-11-27T23:42:44.610Z,11.30
2022-11-27T23:45:11.651Z,11.22
2022-11-27T23:47:38.158Z,11.19
2022-11-27T23:50:06.377Z,11.22
2022-11-27T23:52:32.990Z,11.18
2022-11-27T23:54:59.589Z,11.08
2022-11-27T23:57:26.160Z,11.02
2022-11-27T23:59:52.653Z,10.98
